createdAt,value
2018-06-30T00:02:01.310Z,70.45
2018-06-30T00:05:05.797Z,70.18
2018-06-30T00:08:10.205Z,70.80
2018-06-30T00:11:14.585Z,71.30
2018-06-30T00:14:18.970Z,71.74
2018-06-30T00:17:23.331Z,72.20
2018-06-30T00:20:27.747Z,72.36
2018-06-30T00:23:32.101Z,72.06
2018-06-30T00:26:36.505Z,72.17
2018-06-30T00:29:40.912Z,72.15
2018-06-30T00:32:45.296Z,72.83
2018-06-30T00:35:49.763Z,73.03
2018-06-30T00:38:54.162Z,73.24
2018-06-30T00:41:58.551Z,73.75
2018-06-30T00:45:02.806Z,74.09
2018-06-30T00:48:07.193Z,74.70
2018-06-30T00:51:11.596Z,75.21
2018-06-30T00:54:16.205Z,76.11
2018-06-30T00:57:20.599Z,76.05
2018-06-30T01:00:25.023Z,76.38
2018-06-30T01:03:29.396Z,77.07
2018-06-30T01:06:33.798Z,77.42
2018-06-30T01:09:38.201Z,76.63
2018-06-30T01:12:43.469Z,76.90
2018-06-30T01:15:47.850Z,77.11
2018-06-30T01:18:52.228Z,77.22
2018-06-30T01:21:56.625Z,78.36
2018-06-30T01:25:00.997Z,78.45
2018-06-30T01:28:05.745Z,78.73
2018-06-30T01:31:10.112Z,78.57
2018-06-30T01:34:14.500Z,79.37
2018-06-30T01:37:18.865Z,79.54
2018-06-30T01:40:23.297Z,79.67
2018-06-30T01:43:27.662Z,79.43
2018-06-30T01:46:32.039Z,79.26
2018-06-30T01:49:36.423Z,80.18
2018-06-30T01:52:40.802Z,80.05
2018-06-30T01:55:45.201Z,80.10
2018-06-30T01:58:49.604Z,80.77
2018-06-30T02:01:53.969Z,80.50
2018-06-30T02:04:58.325Z,80.19
2018-06-30T02:08:02.702Z,80.39
2018-06-30T02:11:07.433Z,81.03
2018-06-30T02:14:11.809Z,81.21
2018-06-30T02:17:16.241Z,81.13
2018-06-30T02:20:20.625Z,80.98
2018-06-30T02:23:25.023Z,81.49
2018-06-30T02:26:29.417Z,81.49
2018-06-30T02:29:33.793Z,82.17
2018-06-30T02:32:38.182Z,82.12
2018-06-30T02:35:42.657Z,82.19
2018-06-30T02:38:47.053Z,82.78
2018-06-30T02:41:51.417Z,83.70
2018-06-30T02:44:55.818Z,84.24
2018-06-30T02:48:00.197Z,84.50
2018-06-30T02:51:04.586Z,84.33
2018-06-30T02:54:08.972Z,84.71
2018-06-30T02:57:13.348Z,84.66
2018-06-30T03:00:17.777Z,84.46
2018-06-30T03:03:22.182Z,84.44
2018-06-30T03:06:26.589Z,84.65
2018-06-30T03:09:30.979Z,85.34
2018-06-30T03:12:35.377Z,84.90
2018-06-30T03:15:39.752Z,85.84
2018-06-30T03:18:44.172Z,85.71
2018-06-30T03:21:48.541Z,85.75
2018-06-30T03:24:52.949Z,85.91
2018-06-30T03:27:57.329Z,86.03
2018-06-30T03:31:01.775Z,85.70
2018-06-30T03:34:06.245Z,85.39
2018-06-30T03:37:10.671Z,86.19
2018-06-30T03:40:15.092Z,85.37
2018-06-30T03:43:19.528Z,86.11
2018-06-30T03:46:23.885Z,86.21
2018-06-30T03:49:28.272Z,86.17
2018-06-30T03:52:32.618Z,86.31
2018-06-30T03:55:37.017Z,86.09
2018-06-30T03:58:41.433Z,86.39
2018-06-30T04:01:45.857Z,85.74
2018-06-30T04:04:50.240Z,85.91
2018-06-30T04:07:54.876Z,86.39
2018-06-30T04:10:59.249Z,86.49
2018-06-30T04:14:03.753Z,86.73
2018-06-30T04:17:08.145Z,87.32
2018-06-30T04:20:12.502Z,86.65
2018-06-30T04:23:16.872Z,87.46
2018-06-30T04:26:21.259Z,86.91
2018-06-30T04:29:25.677Z,87.10
2018-06-30T04:32:30.025Z,86.66
2018-06-30T04:35:34.439Z,86.39
2018-06-30T04:38:38.816Z,86.54
2018-06-30T04:41:43.233Z,85.82
2018-06-30T04:44:47.595Z,85.62
2018-06-30T04:47:51.951Z,86.26
2018-06-30T04:50:56.434Z,86.10
2018-06-30T04:54:00.772Z,85.03
2018-06-30T04:57:05.164Z,84.41
2018-06-30T05:00:09.543Z,83.65
2018-06-30T05:03:13.903Z,82.90
2018-06-30T05:06:18.289Z,82.89
2018-06-30T05:09:22.686Z,81.96
2018-06-30T05:12:27.050Z,81.67
2018-06-30T05:15:31.451Z,81.14
2018-06-30T05:18:35.808Z,81.77
2018-06-30T05:21:40.205Z,81.33
2018-06-30T05:24:44.601Z,81.74
2018-06-30T05:27:48.948Z,80.64
2018-06-30T05:30:53.325Z,80.32
2018-06-30T05:33:57.725Z,80.35
2018-06-30T05:37:02.105Z,79.92
2018-06-30T05:40:06.485Z,80.40
2018-06-30T05:43:10.904Z,80.05
2018-06-30T05:46:15.292Z,80.25
2018-06-30T05:49:19.728Z,78.72
2018-06-30T05:52:24.119Z,78.88
2018-06-30T05:55:28.509Z,78.54
2018-06-30T05:58:32.896Z,78.07
2018-06-30T06:01:37.262Z,78.22
2018-06-30T06:04:41.621Z,77.47
2018-06-30T06:07:45.960Z,77.40
2018-06-30T06:10:50.341Z,76.52
2018-06-30T06:13:54.878Z,77.58
2018-06-30T06:16:59.279Z,76.71
2018-06-30T06:20:03.462Z,77.93
2018-06-30T06:23:07.865Z,78.48
2018-06-30T06:26:12.277Z,77.60
2018-06-30T06:29:16.639Z,77.14
2018-06-30T06:32:21.013Z,77.22
2018-06-30T06:35:25.425Z,75.85
2018-06-30T06:38:29.788Z,76.19
2018-06-30T06:41:34.163Z,74.95
2018-06-30T06:44:38.558Z,74.39
2018-06-30T06:47:42.973Z,74.57
2018-06-30T06:50:47.341Z,74.74
2018-06-30T06:53:51.721Z,75.24
2018-06-30T06:56:56.076Z,75.20
2018-06-30T07:00:00.514Z,74.48
2018-06-30T07:03:05.057Z,75.75
2018-06-30T07:06:09.350Z,74.87
2018-06-30T07:09:13.709Z,74.73
2018-06-30T07:12:18.134Z,74.22
2018-06-30T07:15:22.496Z,74.34
2018-06-30T07:18:26.881Z,73.06
2018-06-30T07:21:31.257Z,72.29
2018-06-30T07:24:35.654Z,72.44
2018-06-30T07:27:40.049Z,72.29
2018-06-30T07:30:44.636Z,72.46
2018-06-30T07:33:48.969Z,73.25
2018-06-30T07:36:53.533Z,73.93
2018-06-30T07:39:57.949Z,72.79
2018-06-30T07:43:02.387Z,73.49
2018-06-30T07:46:06.926Z,73.04
2018-06-30T07:49:11.313Z,70.61
2018-06-30T07:52:15.793Z,70.46
2018-06-30T07:55:20.192Z,69.73
2018-06-30T07:58:24.380Z,67.50
2018-06-30T08:01:28.837Z,66.84
2018-06-30T08:04:33.290Z,66.82
2018-06-30T08:07:37.783Z,65.65
2018-06-30T08:10:42.228Z,65.95
2018-06-30T08:13:46.674Z,66.28
2018-06-30T08:16:51.058Z,64.51
2018-06-30T08:19:55.484Z,64.25
2018-06-30T08:22:59.938Z,64.14
2018-06-30T08:26:04.417Z,64.51
2018-06-30T08:29:08.935Z,65.27
2018-06-30T08:32:13.094Z,64.04
2018-06-30T08:35:17.528Z,60.32
2018-06-30T08:38:21.951Z,61.26
2018-06-30T08:41:26.429Z,61.11
2018-06-30T08:44:30.927Z,61.91
2018-06-30T08:47:35.271Z,61.32
2018-06-30T08:50:39.715Z,60.27
2018-06-30T08:53:44.157Z,61.15
2018-06-30T08:56:48.652Z,58.03
2018-06-30T08:59:53.298Z,58.79
2018-06-30T09:02:57.711Z,59.06
2018-06-30T09:06:02.181Z,59.46
2018-06-30T09:09:09.683Z,59.40
2018-06-30T09:12:14.161Z,59.38
2018-06-30T09:15:18.601Z,58.73
2018-06-30T09:18:23.055Z,59.38
2018-06-30T09:21:27.502Z,55.60
2018-06-30T09:24:31.929Z,55.16
2018-06-30T09:27:36.406Z,51.15
2018-06-30T09:30:40.814Z,51.40
2018-06-30T09:33:45.303Z,52.30
2018-06-30T09:36:49.717Z,53.93
2018-06-30T09:39:54.256Z,53.33
2018-06-30T09:42:58.713Z,51.63
2018-06-30T09:46:03.189Z,50.78
2018-06-30T09:49:07.365Z,49.66
2018-06-30T09:52:11.804Z,47.60
2018-06-30T09:55:16.273Z,48.32
2018-06-30T09:58:20.722Z,49.13
2018-06-30T10:01:25.157Z,48.78
2018-06-30T10:04:29.602Z,47.26
2018-06-30T10:07:34.042Z,42.73
2018-06-30T10:10:38.574Z,47.14
2018-06-30T10:13:42.979Z,47.97
2018-06-30T10:16:47.511Z,46.90
2018-06-30T10:19:51.939Z,44.98
2018-06-30T10:22:56.445Z,44.16
2018-06-30T10:26:00.898Z,47.55
2018-06-30T10:29:05.514Z,47.04
2018-06-30T10:32:10.025Z,45.57
2018-06-30T10:35:14.423Z,45.34
2018-06-30T10:38:18.805Z,41.42
2018-06-30T10:41:23.165Z,41.29
2018-06-30T10:44:27.590Z,40.90
2018-06-30T10:47:31.917Z,38.93
2018-06-30T10:50:36.321Z,38.57
2018-06-30T10:53:40.720Z,36.92
2018-06-30T10:56:45.097Z,38.64
2018-06-30T10:59:49.545Z,40.57
2018-06-30T11:02:53.949Z,40.82
2018-06-30T11:05:58.372Z,40.65
2018-06-30T11:09:02.776Z,40.29
2018-06-30T11:12:07.179Z,41.30
2018-06-30T11:15:11.566Z,41.60
2018-06-30T11:18:15.960Z,39.49
2018-06-30T11:21:20.326Z,40.63
2018-06-30T11:24:24.723Z,40.92
2018-06-30T11:27:29.122Z,39.86
2018-06-30T11:30:33.561Z,42.77
2018-06-30T11:33:37.933Z,43.27
2018-06-30T11:36:42.309Z,42.32
2018-06-30T11:39:46.705Z,43.72
2018-06-30T11:42:51.149Z,44.25
2018-06-30T11:45:55.586Z,42.50
2018-06-30T11:48:59.990Z,42.19
2018-06-30T11:52:04.468Z,42.50
2018-06-30T11:55:08.853Z,40.54
2018-06-30T11:58:13.204Z,42.63
2018-06-30T12:01:17.581Z,42.95
2018-06-30T12:04:21.993Z,39.33
2018-06-30T12:07:26.106Z,40.21
2018-06-30T12:10:30.228Z,41.91
2018-06-30T12:13:34.761Z,41.73
2018-06-30T12:16:39.767Z,41.23
2018-06-30T12:19:44.201Z,40.92
2018-06-30T12:22:48.656Z,40.19
2018-06-30T12:25:53.059Z,39.22
2018-06-30T12:28:57.510Z,39.29
2018-06-30T12:32:01.994Z,37.80
2018-06-30T12:35:06.400Z,36.39
2018-06-30T12:38:10.780Z,36.08
2018-06-30T12:41:15.187Z,35.06
2018-06-30T12:44:19.581Z,34.94
2018-06-30T12:47:23.967Z,35.20
2018-06-30T12:50:28.338Z,34.55
2018-06-30T12:53:32.725Z,33.27
2018-06-30T12:56:37.118Z,33.48
2018-06-30T12:59:41.517Z,32.27
2018-06-30T13:02:45.956Z,33.62
2018-06-30T13:05:50.437Z,34.04
2018-06-30T13:08:54.849Z,33.02
2018-06-30T13:11:59.269Z,33.56
2018-06-30T13:15:03.701Z,32.54
2018-06-30T13:18:08.201Z,32.77
2018-06-30T13:21:12.615Z,33.13
2018-06-30T13:24:17.011Z,33.35
2018-06-30T13:27:21.389Z,30.07
2018-06-30T13:30:25.775Z,30.73
2018-06-30T13:33:30.284Z,33.31
2018-06-30T13:36:34.689Z,31.39
2018-06-30T13:39:39.122Z,32.04
2018-06-30T13:42:43.513Z,31.06
2018-06-30T13:45:47.990Z,29.55
2018-06-30T13:48:52.434Z,29.68
2018-06-30T13:51:56.837Z,32.25
2018-06-30T13:55:01.217Z,33.14
2018-06-30T13:58:06.481Z,33.49
2018-06-30T14:01:10.889Z,29.40
2018-06-30T14:04:15.384Z,31.49
2018-06-30T14:07:19.830Z,31.67
2018-06-30T14:10:24.282Z,29.38
2018-06-30T14:13:28.693Z,30.23
2018-06-30T14:16:33.110Z,31.99
2018-06-30T14:19:37.616Z,32.97
2018-06-30T14:22:42.037Z,32.96
2018-06-30T14:25:46.430Z,33.14
2018-06-30T14:28:50.789Z,32.96
2018-06-30T14:31:55.181Z,33.47
2018-06-30T14:34:59.597Z,32.86
2018-06-30T14:38:04.030Z,32.82
2018-06-30T14:41:08.524Z,33.60
2018-06-30T14:44:12.888Z,32.22
2018-06-30T14:47:17.273Z,32.15
2018-06-30T14:50:21.689Z,31.25
2018-06-30T14:53:26.069Z,31.07
2018-06-30T14:56:30.473Z,31.84
2018-06-30T14:59:34.985Z,31.19
2018-06-30T15:02:39.984Z,30.28
2018-06-30T15:05:44.572Z,30.76
2018-06-30T15:08:49.001Z,31.12
2018-06-30T15:11:53.449Z,28.88
2018-06-30T15:14:57.841Z,28.21
2018-06-30T15:18:02.818Z,29.84
2018-06-30T15:21:08.061Z,29.89
2018-06-30T15:24:12.485Z,29.05
2018-06-30T15:27:16.905Z,28.81
2018-06-30T15:30:21.433Z,28.68
2018-06-30T15:33:25.801Z,28.13
2018-06-30T15:36:30.220Z,29.33
2018-06-30T15:39:34.600Z,27.64
2018-06-30T15:42:39.109Z,26.32
2018-06-30T15:45:43.501Z,26.39
2018-06-30T15:48:47.907Z,28.16
2018-06-30T15:51:52.364Z,27.84
2018-06-30T15:54:56.925Z,28.32
2018-06-30T15:58:01.446Z,28.16
2018-06-30T16:01:06.029Z,28.61
2018-06-30T16:04:10.468Z,27.96
2018-06-30T16:07:15.407Z,28.13
2018-06-30T16:10:20.062Z,27.91
2018-06-30T16:13:24.227Z,28.31
2018-06-30T16:16:28.689Z,29.25
2018-06-30T16:19:33.102Z,30.22
2018-06-30T16:22:37.504Z,29.58
2018-06-30T16:25:42.117Z,31.54
2018-06-30T16:28:46.558Z,32.18
2018-06-30T16:31:51.131Z,33.48
2018-06-30T16:34:55.521Z,33.63
2018-06-30T16:38:00.277Z,33.68
2018-06-30T16:41:04.669Z,34.22
2018-06-30T16:44:09.116Z,35.55
2018-06-30T16:47:13.580Z,35.67
2018-06-30T16:50:18.027Z,35.58
2018-06-30T16:53:22.506Z,35.18
2018-06-30T16:56:26.953Z,36.11
2018-06-30T16:59:31.338Z,37.35
2018-06-30T17:02:35.802Z,36.51
2018-06-30T17:05:40.207Z,34.63
2018-06-30T17:08:44.621Z,35.18
2018-06-30T17:11:48.997Z,35.98
2018-06-30T17:14:53.470Z,34.60
2018-06-30T17:17:57.883Z,35.16
2018-06-30T17:21:02.305Z,36.26
2018-06-30T17:24:06.485Z,36.59
2018-06-30T17:27:10.937Z,37.02
2018-06-30T17:30:15.325Z,37.02
2018-06-30T17:33:19.924Z,36.45
2018-06-30T17:36:24.390Z,35.52
2018-06-30T17:39:28.797Z,36.30
2018-06-30T17:42:33.321Z,36.94
2018-06-30T17:45:37.793Z,36.59
2018-06-30T17:48:42.249Z,36.89
2018-06-30T17:51:46.657Z,36.85
2018-06-30T17:54:51.231Z,36.44
2018-06-30T17:57:55.661Z,35.51
2018-06-30T18:01:00.130Z,35.10
2018-06-30T18:04:04.594Z,35.87
2018-06-30T18:07:09.055Z,35.92
2018-06-30T18:10:13.511Z,36.90
2018-06-30T18:13:17.982Z,35.76
2018-06-30T18:16:22.421Z,36.59
2018-06-30T18:19:26.877Z,36.33
2018-06-30T18:22:31.334Z,37.32
2018-06-30T18:25:35.847Z,36.85
2018-06-30T18:28:40.224Z,38.11
2018-06-30T18:31:44.738Z,38.36
2018-06-30T18:34:49.230Z,38.28
2018-06-30T18:37:53.645Z,38.02
2018-06-30T18:40:58.156Z,37.93
2018-06-30T18:44:02.572Z,38.06
2018-06-30T18:47:07.013Z,38.62
2018-06-30T18:50:11.509Z,39.17
2018-06-30T18:53:15.967Z,38.91
2018-06-30T18:56:20.454Z,39.57
2018-06-30T18:59:24.882Z,39.84
2018-06-30T19:02:29.275Z,39.30
2018-06-30T19:05:33.681Z,40.34
2018-06-30T19:08:38.109Z,41.21
2018-06-30T19:11:42.554Z,40.71
2018-06-30T19:14:46.961Z,41.77
2018-06-30T19:17:51.402Z,41.34
2018-06-30T19:20:55.845Z,42.55
2018-06-30T19:24:00.257Z,42.21
2018-06-30T19:27:04.706Z,43.84
2018-06-30T19:30:09.141Z,43.22
2018-06-30T19:33:13.517Z,43.49
2018-06-30T19:36:17.925Z,44.96
2018-06-30T19:39:22.368Z,45.19
2018-06-30T19:42:26.783Z,45.42
2018-06-30T19:45:31.187Z,46.08
2018-06-30T19:48:35.603Z,46.69
2018-06-30T19:51:40.054Z,47.24
2018-06-30T19:54:44.488Z,47.57
2018-06-30T19:57:48.885Z,47.81
2018-06-30T20:00:53.282Z,47.92
2018-06-30T20:03:57.696Z,48.82
2018-06-30T20:07:02.099Z,48.60
2018-06-30T20:10:06.584Z,48.50
2018-06-30T20:13:11.037Z,48.62
2018-06-30T20:16:15.421Z,50.29
2018-06-30T20:19:19.878Z,50.26
2018-06-30T20:22:24.279Z,52.01
2018-06-30T20:25:28.734Z,52.62
2018-06-30T20:28:33.148Z,53.37
2018-06-30T20:31:37.588Z,53.87
2018-06-30T20:34:42.019Z,54.61
2018-06-30T20:37:46.469Z,54.99
2018-06-30T20:40:50.872Z,54.61
2018-06-30T20:43:55.297Z,55.43
2018-06-30T20:46:59.727Z,56.32
2018-06-30T20:50:04.227Z,56.96
2018-06-30T20:53:08.678Z,56.58
2018-06-30T20:56:13.130Z,57.60
2018-06-30T20:59:17.551Z,58.35
2018-06-30T21:02:21.984Z,58.49
2018-06-30T21:05:26.424Z,59.23
2018-06-30T21:08:30.886Z,59.69
2018-06-30T21:11:35.466Z,60.39
2018-06-30T21:14:39.910Z,61.55
2018-06-30T21:17:44.368Z,61.30
2018-06-30T21:20:48.824Z,61.56
2018-06-30T21:23:53.229Z,62.59
2018-06-30T21:26:57.625Z,62.33
2018-06-30T21:30:02.079Z,63.13
2018-06-30T21:33:06.504Z,63.49
2018-06-30T21:36:10.986Z,63.65
2018-06-30T21:39:15.428Z,63.93
2018-06-30T21:42:19.884Z,63.88
2018-06-30T21:45:24.329Z,63.61
2018-06-30T21:48:28.813Z,63.90
2018-06-30T21:51:33.249Z,63.39
2018-06-30T21:54:37.676Z,63.31
2018-06-30T21:57:42.125Z,63.60
2018-06-30T22:00:52.713Z,63.29
2018-06-30T22:03:57.874Z,63.09
2018-06-30T22:07:02.314Z,63.05
2018-06-30T22:10:08.337Z,63.06
2018-06-30T22:13:12.789Z,63.45
2018-06-30T22:16:17.249Z,63.27
2018-06-30T22:19:21.701Z,63.03
2018-06-30T22:22:26.178Z,62.81
2018-06-30T22:25:30.627Z,62.77
2018-06-30T22:28:35.034Z,63.54
2018-06-30T22:31:39.478Z,63.41
2018-06-30T22:34:43.949Z,63.90
2018-06-30T22:37:48.412Z,63.75
2018-06-30T22:40:52.838Z,63.57
2018-06-30T22:43:57.249Z,64.38
2018-06-30T22:47:01.749Z,64.74
2018-06-30T22:50:06.295Z,64.61
2018-06-30T22:53:10.770Z,64.89
2018-06-30T22:56:15.221Z,65.66
2018-06-30T22:59:19.658Z,65.64
2018-06-30T23:02:24.092Z,65.69
2018-06-30T23:05:28.570Z,65.70
2018-06-30T23:08:36.922Z,66.79
2018-06-30T23:11:41.422Z,66.53
2018-06-30T23:14:45.842Z,67.30
2018-06-30T23:17:50.265Z,68.18
2018-06-30T23:20:54.717Z,68.54
2018-06-30T23:23:59.177Z,68.62
2018-06-30T23:27:03.611Z,68.16
2018-06-30T23:30:08.125Z,69.02
2018-06-30T23:33:12.534Z,68.88
2018-06-30T23:36:17.017Z,69.63
2018-06-30T23:39:21.488Z,69.60
2018-06-30T23:42:25.991Z,69.90
2018-06-30T23:45:30.428Z,69.22
2018-06-30T23:48:34.882Z,69.83
2018-06-30T23:51:39.325Z,69.84
2018-06-30T23:54:43.755Z,70.34
2018-06-30T23:57:47.936Z,70.66
